sensor_id;sensor_type;location;lat;lon;timestamp;temperature;humidity
57242;DHT22;43095;53.302;5.786;2023-04-24T00:02:09;10.50;99.90
57242;DHT22;43095;53.302;5.786;2023-04-24T00:04:38;10.60;99.90
57242;DHT22;43095;53.302;5.786;2023-04-24T00:07:08;10.50;99.90
57242;DHT22;43095;53.302;5.786;2023-04-24T00:09:35;10.50;99.90
57242;DHT22;43095;53.302;5.786;2023-04-24T00:12:03;10.50;99.90
57242;DHT22;43095;53.302;5.786;2023-04-24T00:14:31;10.50;99.90
57242;DHT22;43095;53.302;5.786;2023-04-24T00:16:58;10.50;99.90
57242;DHT22;43095;53.302;5.786;2023-04-24T00:19:26;10.50;99.90
57242;DHT22;43095;53.302;5.786;2023-04-24T00:21:53;10.50;99.90
57242;DHT22;43095;53.302;5.786;2023-04-24T00:24:20;10.50;99.90
57242;DHT22;43095;53.302;5.786;2023-04-24T00:26:48;10.50;99.90
57242;DHT22;43095;53.302;5.786;2023-04-24T00:29:15;10.50;99.90
57242;DHT22;43095;53.302;5.786;2023-04-24T00:31:42;10.50;99.90
57242;DHT22;43095;53.302;5.786;2023-04-24T00:34:09;10.50;99.90
57242;DHT22;43095;53.302;5.786;2023-04-24T00:36:38;10.50;99.90
57242;DHT22;43095;53.302;5.786;2023-04-24T00:39:05;10.50;99.90
57242;DHT22;43095;53.302;5.786;2023-04-24T00:41:35;10.50;99.90
57242;DHT22;43095;53.302;5.786;2023-04-24T00:44:02;10.50;99.90
57242;DHT22;43095;53.302;5.786;2023-04-24T00:46:30;10.50;99.90
57242;DHT22;43095;53.302;5.786;2023-04-24T00:48:59;10.50;99.90
57242;DHT22;43095;53.302;5.786;2023-04-24T00:51:26;10.50;99.90
57242;DHT22;43095;53.302;5.786;2023-04-24T00:53:54;10.50;99.90
57242;DHT22;43095;53.302;5.786;2023-04-24T00:56:21;10.50;99.90
57242;DHT22;43095;53.302;5.786;2023-04-24T00:58:49;10.50;99.90
57242;DHT22;43095;53.302;5.786;2023-04-24T01:01:18;10.50;99.90
57242;DHT22;43095;53.302;5.786;2023-04-24T01:03:49;10.50;99.90
57242;DHT22;43095;53.302;5.786;2023-04-24T01:06:18;10.50;99.90
57242;DHT22;43095;53.302;5.786;2023-04-24T01:08:46;10.50;99.90
57242;DHT22;43095;53.302;5.786;2023-04-24T01:11:14;10.40;99.90
57242;DHT22;43095;53.302;5.786;2023-04-24T01:13:41;10.50;99.90
57242;DHT22;43095;53.302;5.786;2023-04-24T01:16:09;10.50;99.90
57242;DHT22;43095;53.302;5.786;2023-04-24T01:18:37;10.50;99.90
57242;DHT22;43095;53.302;5.786;2023-04-24T01:21:05;10.40;99.90
57242;DHT22;43095;53.302;5.786;2023-04-24T01:23:35;10.50;99.90
57242;DHT22;43095;53.302;5.786;2023-04-24T01:26:02;10.50;99.90
57242;DHT22;43095;53.302;5.786;2023-04-24T01:28:29;10.50;99.90
57242;DHT22;43095;53.302;5.786;2023-04-24T01:30:57;10.50;99.90
57242;DHT22;43095;53.302;5.786;2023-04-24T01:33:24;10.50;99.90
57242;DHT22;43095;53.302;5.786;2023-04-24T01:35:52;10.50;99.90
57242;DHT22;43095;53.302;5.786;2023-04-24T01:38:19;10.50;99.90
57242;DHT22;43095;53.302;5.786;2023-04-24T01:40:46;10.50;99.90
57242;DHT22;43095;53.302;5.786;2023-04-24T01:43:13;10.50;99.90
57242;DHT22;43095;53.302;5.786;2023-04-24T01:45:41;10.50;99.90
57242;DHT22;43095;53.302;5.786;2023-04-24T01:48:08;10.50;99.90
57242;DHT22;43095;53.302;5.786;2023-04-24T01:50:35;10.50;99.90
57242;DHT22;43095;53.302;5.786;2023-04-24T01:53:03;10.50;99.90
57242;DHT22;43095;53.302;5.786;2023-04-24T01:55:30;10.50;99.90
57242;DHT22;43095;53.302;5.786;2023-04-24T01:57:59;10.50;99.90
57242;DHT22;43095;53.302;5.786;2023-04-24T02:00:27;10.50;99.90
57242;DHT22;43095;53.302;5.786;2023-04-24T02:02:54;10.50;99.90
57242;DHT22;43095;53.302;5.786;2023-04-24T02:05:21;10.50;99.90
57242;DHT22;43095;53.302;5.786;2023-04-24T02:07:49;10.50;99.90
57242;DHT22;43095;53.302;5.786;2023-04-24T02:10:16;10.40;99.90
57242;DHT22;43095;53.302;5.786;2023-04-24T02:12:45;10.40;99.90
57242;DHT22;43095;53.302;5.786;2023-04-24T02:15:12;10.50;99.90
57242;DHT22;43095;53.302;5.786;2023-04-24T02:17:39;10.40;99.90
57242;DHT22;43095;53.302;5.786;2023-04-24T02:20:07;10.40;99.90
57242;DHT22;43095;53.302;5.786;2023-04-24T02:22:34;10.40;99.90
57242;DHT22;43095;53.302;5.786;2023-04-24T02:25:01;10.30;99.90
57242;DHT22;43095;53.302;5.786;2023-04-24T02:27:29;10.30;99.90
57242;DHT22;43095;53.302;5.786;2023-04-24T02:29:56;10.30;99.90
57242;DHT22;43095;53.302;5.786;2023-04-24T02:32:23;10.30;99.90
57242;DHT22;43095;53.302;5.786;2023-04-24T02:34:50;10.30;99.90
57242;DHT22;43095;53.302;5.786;2023-04-24T02:37:18;10.20;99.90
57242;DHT22;43095;53.302;5.786;2023-04-24T02:39:45;10.20;99.90
57242;DHT22;43095;53.302;5.786;2023-04-24T02:42:12;10.10;99.90
57242;DHT22;43095;53.302;5.786;2023-04-24T02:44:40;10.10;99.90
57242;DHT22;43095;53.302;5.786;2023-04-24T02:47:07;10.10;99.90
57242;DHT22;43095;53.302;5.786;2023-04-24T02:49:35;10.10;99.90
57242;DHT22;43095;53.302;5.786;2023-04-24T02:52:02;10.10;99.90
57242;DHT22;43095;53.302;5.786;2023-04-24T02:54:29;10.10;99.90
57242;DHT22;43095;53.302;5.786;2023-04-24T02:56:56;10.10;99.90
57242;DHT22;43095;53.302;5.786;2023-04-24T02:59:24;10.20;99.90
57242;DHT22;43095;53.302;5.786;2023-04-24T03:01:51;10.10;99.90
57242;DHT22;43095;53.302;5.786;2023-04-24T03:04:18;10.10;99.90
57242;DHT22;43095;53.302;5.786;2023-04-24T03:06:47;10.10;99.90
57242;DHT22;43095;53.302;5.786;2023-04-24T03:09:14;10.10;99.90
57242;DHT22;43095;53.302;5.786;2023-04-24T03:11:42;10.10;99.90
57242;DHT22;43095;53.302;5.786;2023-04-24T03:14:09;10.10;99.90
57242;DHT22;43095;53.302;5.786;2023-04-24T03:16:37;10.10;99.90
57242;DHT22;43095;53.302;5.786;2023-04-24T03:19:06;10.10;99.90
57242;DHT22;43095;53.302;5.786;2023-04-24T03:21:39;10.10;99.90
57242;DHT22;43095;53.302;5.786;2023-04-24T03:29:29;10.10;99.90
57242;DHT22;43095;53.302;5.786;2023-04-24T03:31:57;10.00;99.90
57242;DHT22;43095;53.302;5.786;2023-04-24T03:34:24;10.00;99.90
57242;DHT22;43095;53.302;5.786;2023-04-24T03:36:52;10.00;99.90
57242;DHT22;43095;53.302;5.786;2023-04-24T03:39:24;10.00;99.90
57242;DHT22;43095;53.302;5.786;2023-04-24T03:41:54;10.00;99.90
57242;DHT22;43095;53.302;5.786;2023-04-24T03:51:56;10.00;99.90
57242;DHT22;43095;53.302;5.786;2023-04-24T03:54:26;10.00;99.90
57242;DHT22;43095;53.302;5.786;2023-04-24T03:56:53;9.90;99.90
57242;DHT22;43095;53.302;5.786;2023-04-24T03:59:22;9.90;99.90
57242;DHT22;43095;53.302;5.786;2023-04-24T04:02:02;9.90;99.90
57242;DHT22;43095;53.302;5.786;2023-04-24T04:04:29;9.80;99.90
57242;DHT22;43095;53.302;5.786;2023-04-24T04:06:57;9.80;99.90
57242;DHT22;43095;53.302;5.786;2023-04-24T04:09:28;9.90;99.90
57242;DHT22;43095;53.302;5.786;2023-04-24T04:11:55;9.90;99.90
57242;DHT22;43095;53.302;5.786;2023-04-24T04:14:22;9.80;99.90
57242;DHT22;43095;53.302;5.786;2023-04-24T04:16:50;9.80;99.90
57242;DHT22;43095;53.302;5.786;2023-04-24T04:19:21;9.90;99.90
57242;DHT22;43095;53.302;5.786;2023-04-24T04:21:48;9.80;99.90
57242;DHT22;43095;53.302;5.786;2023-04-24T04:24:27;9.80;99.90
57242;DHT22;43095;53.302;5.786;2023-04-24T04:26:57;9.80;99.90
57242;DHT22;43095;53.302;5.786;2023-04-24T04:29:29;9.80;99.90
57242;DHT22;43095;53.302;5.786;2023-04-24T04:31:56;9.80;99.90
57242;DHT22;43095;53.302;5.786;2023-04-24T04:34:24;9.70;99.90
57242;DHT22;43095;53.302;5.786;2023-04-24T04:36:51;9.70;99.90
57242;DHT22;43095;53.302;5.786;2023-04-24T04:39:39;9.80;99.90
57242;DHT22;43095;53.302;5.786;2023-04-24T04:42:10;9.70;99.90
57242;DHT22;43095;53.302;5.786;2023-04-24T04:44:42;9.70;99.90
57242;DHT22;43095;53.302;5.786;2023-04-24T04:47:17;9.70;99.90
57242;DHT22;43095;53.302;5.786;2023-04-24T04:49:45;9.70;99.90
57242;DHT22;43095;53.302;5.786;2023-04-24T04:52:18;9.70;99.90
57242;DHT22;43095;53.302;5.786;2023-04-24T04:54:49;9.70;99.90
57242;DHT22;43095;53.302;5.786;2023-04-24T04:57:22;9.70;99.90
57242;DHT22;43095;53.302;5.786;2023-04-24T04:59:49;9.60;99.90
57242;DHT22;43095;53.302;5.786;2023-04-24T05:02:28;9.50;99.90
57242;DHT22;43095;53.302;5.786;2023-04-24T05:04:55;9.50;99.90
57242;DHT22;43095;53.302;5.786;2023-04-24T05:07:22;9.50;99.90
57242;DHT22;43095;53.302;5.786;2023-04-24T05:09:52;9.50;99.90
57242;DHT22;43095;53.302;5.786;2023-04-24T05:12:19;9.50;99.90
57242;DHT22;43095;53.302;5.786;2023-04-24T05:14:51;9.50;99.90
57242;DHT22;43095;53.302;5.786;2023-04-24T05:17:18;9.50;99.90
57242;DHT22;43095;53.302;5.786;2023-04-24T05:19:45;9.50;99.90
57242;DHT22;43095;53.302;5.786;2023-04-24T05:22:14;9.50;99.90
57242;DHT22;43095;53.302;5.786;2023-04-24T05:24:48;9.50;99.90
57242;DHT22;43095;53.302;5.786;2023-04-24T05:27:38;9.50;99.90
57242;DHT22;43095;53.302;5.786;2023-04-24T05:30:12;9.50;99.90
57242;DHT22;43095;53.302;5.786;2023-04-24T05:32:39;9.50;99.90
57242;DHT22;43095;53.302;5.786;2023-04-24T05:35:07;9.40;99.90
57242;DHT22;43095;53.302;5.786;2023-04-24T05:37:35;9.40;99.90
57242;DHT22;43095;53.302;5.786;2023-04-24T05:40:03;9.40;99.90
57242;DHT22;43095;53.302;5.786;2023-04-24T05:42:32;9.40;99.90
57242;DHT22;43095;53.302;5.786;2023-04-24T05:45:00;9.40;99.90
57242;DHT22;43095;53.302;5.786;2023-04-24T05:47:27;9.40;99.90
57242;DHT22;43095;53.302;5.786;2023-04-24T05:49:55;9.40;99.90
57242;DHT22;43095;53.302;5.786;2023-04-24T05:52:22;9.40;99.90
57242;DHT22;43095;53.302;5.786;2023-04-24T05:54:50;9.30;99.90
57242;DHT22;43095;53.302;5.786;2023-04-24T05:57:21;9.30;99.90
57242;DHT22;43095;53.302;5.786;2023-04-24T05:59:54;9.30;99.90
57242;DHT22;43095;53.302;5.786;2023-04-24T06:02:22;9.20;99.90
57242;DHT22;43095;53.302;5.786;2023-04-24T06:04:50;9.20;99.90
57242;DHT22;43095;53.302;5.786;2023-04-24T06:07:18;9.20;99.90
57242;DHT22;43095;53.302;5.786;2023-04-24T06:09:45;9.30;99.90
57242;DHT22;43095;53.302;5.786;2023-04-24T06:12:13;9.20;99.90
57242;DHT22;43095;53.302;5.786;2023-04-24T06:17:42;9.30;99.90
57242;DHT22;43095;53.302;5.786;2023-04-24T06:20:11;9.20;99.90
57242;DHT22;43095;53.302;5.786;2023-04-24T06:39:56;9.10;99.90
57242;DHT22;43095;53.302;5.786;2023-04-24T06:42:26;9.10;99.90
57242;DHT22;43095;53.302;5.786;2023-04-24T06:44:55;8.90;99.90
57242;DHT22;43095;53.302;5.786;2023-04-24T06:47:22;8.90;99.90
57242;DHT22;43095;53.302;5.786;2023-04-24T06:49:49;8.90;99.90
57242;DHT22;43095;53.302;5.786;2023-04-24T06:52:19;8.90;99.90
57242;DHT22;43095;53.302;5.786;2023-04-24T06:54:46;8.90;99.90
57242;DHT22;43095;53.302;5.786;2023-04-24T06:57:14;9.00;99.90
57242;DHT22;43095;53.302;5.786;2023-04-24T06:59:43;8.90;99.90
57242;DHT22;43095;53.302;5.786;2023-04-24T07:02:10;9.00;99.90
57242;DHT22;43095;53.302;5.786;2023-04-24T07:04:38;8.90;99.90
57242;DHT22;43095;53.302;5.786;2023-04-24T07:07:05;9.00;99.90
57242;DHT22;43095;53.302;5.786;2023-04-24T07:09:33;8.90;99.90
57242;DHT22;43095;53.302;5.786;2023-04-24T07:12:02;8.90;99.90
57242;DHT22;43095;53.302;5.786;2023-04-24T07:14:29;8.80;99.90
57242;DHT22;43095;53.302;5.786;2023-04-24T07:16:56;8.70;99.90
57242;DHT22;43095;53.302;5.786;2023-04-24T07:19:24;8.80;99.90
57242;DHT22;43095;53.302;5.786;2023-04-24T07:21:51;8.80;99.90
57242;DHT22;43095;53.302;5.786;2023-04-24T07:24:18;8.80;99.90
57242;DHT22;43095;53.302;5.786;2023-04-24T07:26:48;8.90;99.90
57242;DHT22;43095;53.302;5.786;2023-04-24T07:29:15;8.80;99.90
57242;DHT22;43095;53.302;5.786;2023-04-24T07:31:43;8.80;99.90
57242;DHT22;43095;53.302;5.786;2023-04-24T07:34:10;8.80;99.90
57242;DHT22;43095;53.302;5.786;2023-04-24T07:36:37;8.90;99.90
57242;DHT22;43095;53.302;5.786;2023-04-24T07:39:07;8.90;99.90
57242;DHT22;43095;53.302;5.786;2023-04-24T07:41:35;8.90;99.90
57242;DHT22;43095;53.302;5.786;2023-04-24T07:44:02;8.90;99.90
57242;DHT22;43095;53.302;5.786;2023-04-24T07:46:31;9.00;99.90
57242;DHT22;43095;53.302;5.786;2023-04-24T07:49:00;9.00;99.90
57242;DHT22;43095;53.302;5.786;2023-04-24T07:51:39;9.10;99.90
57242;DHT22;43095;53.302;5.786;2023-04-24T07:54:07;9.10;99.90
57242;DHT22;43095;53.302;5.786;2023-04-24T07:56:34;9.20;99.90
57242;DHT22;43095;53.302;5.786;2023-04-24T07:59:01;9.10;99.90
57242;DHT22;43095;53.302;5.786;2023-04-24T08:01:28;9.20;99.90
57242;DHT22;43095;53.302;5.786;2023-04-24T08:03:56;9.10;99.90
57242;DHT22;43095;53.302;5.786;2023-04-24T08:06:23;9.10;99.90
57242;DHT22;43095;53.302;5.786;2023-04-24T08:08:51;9.10;99.90
57242;DHT22;43095;53.302;5.786;2023-04-24T08:11:18;9.10;99.90
57242;DHT22;43095;53.302;5.786;2023-04-24T08:13:48;9.20;99.90
57242;DHT22;43095;53.302;5.786;2023-04-24T08:16:15;9.20;99.90
57242;DHT22;43095;53.302;5.786;2023-04-24T08:18:43;9.20;99.90
57242;DHT22;43095;53.302;5.786;2023-04-24T08:21:10;9.30;99.90
57242;DHT22;43095;53.302;5.786;2023-04-24T08:23:38;9.20;99.90
57242;DHT22;43095;53.302;5.786;2023-04-24T08:26:07;9.20;99.90
57242;DHT22;43095;53.302;5.786;2023-04-24T08:28:34;9.20;99.90
57242;DHT22;43095;53.302;5.786;2023-04-24T08:31:01;9.20;99.90
57242;DHT22;43095;53.302;5.786;2023-04-24T08:33:29;9.30;99.90
57242;DHT22;43095;53.302;5.786;2023-04-24T08:36:05;9.30;99.90
57242;DHT22;43095;53.302;5.786;2023-04-24T08:38:33;9.20;99.90
57242;DHT22;43095;53.302;5.786;2023-04-24T08:41:01;9.30;99.90
57242;DHT22;43095;53.302;5.786;2023-04-24T08:43:28;9.40;99.90
57242;DHT22;43095;53.302;5.786;2023-04-24T08:45:57;9.40;99.90
57242;DHT22;43095;53.302;5.786;2023-04-24T08:48:26;9.50;99.90
57242;DHT22;43095;53.302;5.786;2023-04-24T08:50:58;9.60;99.90
57242;DHT22;43095;53.302;5.786;2023-04-24T08:53:26;9.60;99.90
57242;DHT22;43095;53.302;5.786;2023-04-24T08:55:54;9.60;99.90
57242;DHT22;43095;53.302;5.786;2023-04-24T08:58:25;9.70;99.90
57242;DHT22;43095;53.302;5.786;2023-04-24T09:00:55;9.70;99.90
57242;DHT22;43095;53.302;5.786;2023-04-24T09:03:23;9.80;99.90
57242;DHT22;43095;53.302;5.786;2023-04-24T09:05:50;9.80;99.90
57242;DHT22;43095;53.302;5.786;2023-04-24T09:08:19;9.80;99.90
57242;DHT22;43095;53.302;5.786;2023-04-24T09:10:50;9.90;99.90
57242;DHT22;43095;53.302;5.786;2023-04-24T09:13:19;9.90;99.90
57242;DHT22;43095;53.302;5.786;2023-04-24T09:15:46;10.00;99.90
57242;DHT22;43095;53.302;5.786;2023-04-24T09:18:13;10.00;99.90
57242;DHT22;43095;53.302;5.786;2023-04-24T09:21:03;10.10;99.90
57242;DHT22;43095;53.302;5.786;2023-04-24T09:23:31;10.20;99.90
57242;DHT22;43095;53.302;5.786;2023-04-24T09:26:01;10.20;99.90
57242;DHT22;43095;53.302;5.786;2023-04-24T09:28:35;10.20;99.90
57242;DHT22;43095;53.302;5.786;2023-04-24T09:31:12;10.20;99.90
57242;DHT22;43095;53.302;5.786;2023-04-24T09:34:03;10.30;99.90
57242;DHT22;43095;53.302;5.786;2023-04-24T09:36:36;10.20;99.90
57242;DHT22;43095;53.302;5.786;2023-04-24T09:39:10;10.30;99.90
57242;DHT22;43095;53.302;5.786;2023-04-24T09:41:53;10.30;99.90
57242;DHT22;43095;53.302;5.786;2023-04-24T09:44:21;10.50;99.90
57242;DHT22;43095;53.302;5.786;2023-04-24T09:46:51;10.40;99.90
57242;DHT22;43095;53.302;5.786;2023-04-24T09:49:31;10.40;99.90
57242;DHT22;43095;53.302;5.786;2023-04-24T09:52:08;10.40;99.90
57242;DHT22;43095;53.302;5.786;2023-04-24T09:54:36;10.50;99.90
57242;DHT22;43095;53.302;5.786;2023-04-24T09:57:04;10.40;99.90
57242;DHT22;43095;53.302;5.786;2023-04-24T09:59:31;10.40;99.90
57242;DHT22;43095;53.302;5.786;2023-04-24T10:02:01;10.50;99.90
57242;DHT22;43095;53.302;5.786;2023-04-24T10:04:29;10.50;99.90
57242;DHT22;43095;53.302;5.786;2023-04-24T10:06:57;10.50;99.90
57242;DHT22;43095;53.302;5.786;2023-04-24T10:09:26;10.40;99.90
57242;DHT22;43095;53.302;5.786;2023-04-24T10:11:54;10.30;99.90
57242;DHT22;43095;53.302;5.786;2023-04-24T10:14:23;10.40;99.90
57242;DHT22;43095;53.302;5.786;2023-04-24T10:16:55;10.40;99.90
57242;DHT22;43095;53.302;5.786;2023-04-24T10:19:26;10.50;99.90
57242;DHT22;43095;53.302;5.786;2023-04-24T10:21:53;10.30;99.90
57242;DHT22;43095;53.302;5.786;2023-04-24T10:24:22;10.30;99.90
57242;DHT22;43095;53.302;5.786;2023-04-24T10:26:49;10.40;99.90
57242;DHT22;43095;53.302;5.786;2023-04-24T10:29:18;10.20;99.90
57242;DHT22;43095;53.302;5.786;2023-04-24T10:31:46;10.30;99.90
57242;DHT22;43095;53.302;5.786;2023-04-24T10:34:15;10.20;99.90
57242;DHT22;43095;53.302;5.786;2023-04-24T10:37:02;10.20;99.90
57242;DHT22;43095;53.302;5.786;2023-04-24T10:39:30;10.10;99.90
57242;DHT22;43095;53.302;5.786;2023-04-24T10:42:00;10.20;99.90
57242;DHT22;43095;53.302;5.786;2023-04-24T10:44:36;10.20;99.90
57242;DHT22;43095;53.302;5.786;2023-04-24T10:47:03;10.20;99.90
57242;DHT22;43095;53.302;5.786;2023-04-24T10:49:31;10.20;99.90
57242;DHT22;43095;53.302;5.786;2023-04-24T10:52:03;10.20;99.90
57242;DHT22;43095;53.302;5.786;2023-04-24T10:54:42;10.10;99.90
57242;DHT22;43095;53.302;5.786;2023-04-24T11:00:13;9.90;99.90
57242;DHT22;43095;53.302;5.786;2023-04-24T11:02:41;9.60;99.90
57242;DHT22;43095;53.302;5.786;2023-04-24T11:05:16;9.50;99.90
57242;DHT22;43095;53.302;5.786;2023-04-24T11:08:27;9.50;99.90
57242;DHT22;43095;53.302;5.786;2023-04-24T11:11:01;9.50;99.90
57242;DHT22;43095;53.302;5.786;2023-04-24T11:19:04;9.60;99.90
57242;DHT22;43095;53.302;5.786;2023-04-24T11:22:00;9.70;99.90
57242;DHT22;43095;53.302;5.786;2023-04-24T11:27:24;9.50;99.90
57242;DHT22;43095;53.302;5.786;2023-04-24T11:32:29;9.60;99.90
57242;DHT22;43095;53.302;5.786;2023-04-24T11:35:03;9.70;99.90
57242;DHT22;43095;53.302;5.786;2023-04-24T11:37:38;9.70;99.90
57242;DHT22;43095;53.302;5.786;2023-04-24T11:40:08;9.70;99.90
57242;DHT22;43095;53.302;5.786;2023-04-24T11:42:37;9.70;99.90
57242;DHT22;43095;53.302;5.786;2023-04-24T11:45:15;9.60;99.90
57242;DHT22;43095;53.302;5.786;2023-04-24T11:47:44;9.70;99.90
57242;DHT22;43095;53.302;5.786;2023-04-24T11:50:14;9.70;99.90
57242;DHT22;43095;53.302;5.786;2023-04-24T11:52:43;9.80;99.90
57242;DHT22;43095;53.302;5.786;2023-04-24T11:57:46;9.80;99.90
57242;DHT22;43095;53.302;5.786;2023-04-24T12:00:19;9.80;99.90
57242;DHT22;43095;53.302;5.786;2023-04-24T12:02:48;10.00;99.90
57242;DHT22;43095;53.302;5.786;2023-04-24T12:05:29;10.10;99.90
57242;DHT22;43095;53.302;5.786;2023-04-24T12:07:59;10.30;99.90
57242;DHT22;43095;53.302;5.786;2023-04-24T12:10:27;10.40;99.90
57242;DHT22;43095;53.302;5.786;2023-04-24T12:12:57;10.40;99.90
57242;DHT22;43095;53.302;5.786;2023-04-24T12:15:24;10.30;99.90
57242;DHT22;43095;53.302;5.786;2023-04-24T12:17:53;10.30;99.90
57242;DHT22;43095;53.302;5.786;2023-04-24T12:20:30;10.30;99.90
57242;DHT22;43095;53.302;5.786;2023-04-24T12:22:59;10.30;99.90
57242;DHT22;43095;53.302;5.786;2023-04-24T12:25:34;10.50;99.90
57242;DHT22;43095;53.302;5.786;2023-04-24T12:30:35;10.40;99.90
57242;DHT22;43095;53.302;5.786;2023-04-24T12:33:03;10.30;99.90
57242;DHT22;43095;53.302;5.786;2023-04-24T12:35:32;10.30;99.90
57242;DHT22;43095;53.302;5.786;2023-04-24T12:38:15;10.20;99.90
57242;DHT22;43095;53.302;5.786;2023-04-24T12:40:43;10.10;99.90
57242;DHT22;43095;53.302;5.786;2023-04-24T12:43:19;10.10;99.90
57242;DHT22;43095;53.302;5.786;2023-04-24T12:45:50;10.10;99.90
57242;DHT22;43095;53.302;5.786;2023-04-24T12:48:17;10.30;99.90
57242;DHT22;43095;53.302;5.786;2023-04-24T12:50:44;10.10;99.90
57242;DHT22;43095;53.302;5.786;2023-04-24T12:53:13;10.10;99.90
57242;DHT22;43095;53.302;5.786;2023-04-24T12:55:42;10.10;99.90
57242;DHT22;43095;53.302;5.786;2023-04-24T12:58:09;10.00;99.90
57242;DHT22;43095;53.302;5.786;2023-04-24T13:00:36;9.70;99.90
57242;DHT22;43095;53.302;5.786;2023-04-24T13:03:05;9.60;99.90
57242;DHT22;43095;53.302;5.786;2023-04-24T13:05:33;9.60;99.90
57242;DHT22;43095;53.302;5.786;2023-04-24T13:08:00;9.30;99.90
57242;DHT22;43095;53.302;5.786;2023-04-24T13:10:27;9.30;99.90
57242;DHT22;43095;53.302;5.786;2023-04-24T13:12:57;9.40;99.90
57242;DHT22;43095;53.302;5.786;2023-04-24T13:15:24;9.50;99.90
57242;DHT22;43095;53.302;5.786;2023-04-24T13:17:51;9.50;99.90
57242;DHT22;43095;53.302;5.786;2023-04-24T13:20:18;9.50;99.90
57242;DHT22;43095;53.302;5.786;2023-04-24T13:22:46;9.30;99.90
57242;DHT22;43095;53.302;5.786;2023-04-24T13:25:13;9.30;99.90
57242;DHT22;43095;53.302;5.786;2023-04-24T13:27:44;9.30;99.90
57242;DHT22;43095;53.302;5.786;2023-04-24T13:30:11;9.40;99.90
57242;DHT22;43095;53.302;5.786;2023-04-24T13:32:41;9.40;99.90
57242;DHT22;43095;53.302;5.786;2023-04-24T13:35:09;9.40;99.90
57242;DHT22;43095;53.302;5.786;2023-04-24T13:37:36;9.40;99.90
57242;DHT22;43095;53.302;5.786;2023-04-24T13:40:04;9.40;99.90
57242;DHT22;43095;53.302;5.786;2023-04-24T13:42:33;9.40;99.90
57242;DHT22;43095;53.302;5.786;2023-04-24T13:45:01;9.40;99.90
57242;DHT22;43095;53.302;5.786;2023-04-24T13:47:49;9.50;99.90
57242;DHT22;43095;53.302;5.786;2023-04-24T13:50:18;9.50;99.90
57242;DHT22;43095;53.302;5.786;2023-04-24T13:52:45;9.50;99.90
57242;DHT22;43095;53.302;5.786;2023-04-24T13:55:12;9.50;99.90
57242;DHT22;43095;53.302;5.786;2023-04-24T13:57:40;9.50;99.90
57242;DHT22;43095;53.302;5.786;2023-04-24T14:00:07;9.40;99.90
57242;DHT22;43095;53.302;5.786;2023-04-24T14:02:37;9.50;99.90
57242;DHT22;43095;53.302;5.786;2023-04-24T14:05:06;9.50;99.90
57242;DHT22;43095;53.302;5.786;2023-04-24T14:07:33;9.50;99.90
57242;DHT22;43095;53.302;5.786;2023-04-24T14:10:01;9.50;99.90
57242;DHT22;43095;53.302;5.786;2023-04-24T14:12:28;9.50;99.90
57242;DHT22;43095;53.302;5.786;2023-04-24T14:14:55;9.60;99.90
57242;DHT22;43095;53.302;5.786;2023-04-24T14:17:22;9.70;99.90
57242;DHT22;43095;53.302;5.786;2023-04-24T14:19:49;9.60;99.90
57242;DHT22;43095;53.302;5.786;2023-04-24T14:22:18;9.50;99.90
57242;DHT22;43095;53.302;5.786;2023-04-24T14:24:45;9.40;99.90
57242;DHT22;43095;53.302;5.786;2023-04-24T14:27:13;9.40;99.90
57242;DHT22;43095;53.302;5.786;2023-04-24T14:29:40;9.30;99.90
57242;DHT22;43095;53.302;5.786;2023-04-24T14:32:07;9.20;99.90
57242;DHT22;43095;53.302;5.786;2023-04-24T14:34:35;9.20;99.90
57242;DHT22;43095;53.302;5.786;2023-04-24T14:37:04;9.40;99.90
57242;DHT22;43095;53.302;5.786;2023-04-24T14:39:31;9.40;99.90
57242;DHT22;43095;53.302;5.786;2023-04-24T14:41:58;9.40;99.90
57242;DHT22;43095;53.302;5.786;2023-04-24T14:44:25;9.50;99.90
57242;DHT22;43095;53.302;5.786;2023-04-24T14:46:52;9.50;99.90
57242;DHT22;43095;53.302;5.786;2023-04-24T14:49:20;9.50;99.90
57242;DHT22;43095;53.302;5.786;2023-04-24T14:51:47;9.40;99.90
57242;DHT22;43095;53.302;5.786;2023-04-24T14:54:14;9.40;99.90
57242;DHT22;43095;53.302;5.786;2023-04-24T14:56:41;9.20;99.90
57242;DHT22;43095;53.302;5.786;2023-04-24T14:59:10;9.00;99.90
57242;DHT22;43095;53.302;5.786;2023-04-24T15:01:37;8.90;99.90
57242;DHT22;43095;53.302;5.786;2023-04-24T15:04:05;8.80;99.90
57242;DHT22;43095;53.302;5.786;2023-04-24T15:06:32;8.80;99.90
57242;DHT22;43095;53.302;5.786;2023-04-24T15:08:59;8.80;99.90
57242;DHT22;43095;53.302;5.786;2023-04-24T15:11:27;8.80;99.90
57242;DHT22;43095;53.302;5.786;2023-04-24T15:13:55;8.80;99.90
57242;DHT22;43095;53.302;5.786;2023-04-24T15:16:23;8.90;99.90
57242;DHT22;43095;53.302;5.786;2023-04-24T15:18:51;8.80;99.90
57242;DHT22;43095;53.302;5.786;2023-04-24T15:21:18;8.90;99.90
57242;DHT22;43095;53.302;5.786;2023-04-24T15:23:45;8.90;99.90
57242;DHT22;43095;53.302;5.786;2023-04-24T15:26:12;8.90;99.90
57242;DHT22;43095;53.302;5.786;2023-04-24T15:28:39;8.80;99.90
57242;DHT22;43095;53.302;5.786;2023-04-24T15:31:07;8.80;99.90
57242;DHT22;43095;53.302;5.786;2023-04-24T15:33:34;8.80;99.90
57242;DHT22;43095;53.302;5.786;2023-04-24T15:36:01;8.80;99.90
57242;DHT22;43095;53.302;5.786;2023-04-24T15:38:28;8.80;99.90
57242;DHT22;43095;53.302;5.786;2023-04-24T15:40:55;8.60;99.90
57242;DHT22;43095;53.302;5.786;2023-04-24T15:43:22;8.70;99.90
57242;DHT22;43095;53.302;5.786;2023-04-24T15:45:50;8.70;99.90
57242;DHT22;43095;53.302;5.786;2023-04-24T15:48:18;8.70;99.90
57242;DHT22;43095;53.302;5.786;2023-04-24T15:50:45;8.70;99.90
57242;DHT22;43095;53.302;5.786;2023-04-24T15:53:12;8.70;99.90
57242;DHT22;43095;53.302;5.786;2023-04-24T15:55:39;8.60;99.90
57242;DHT22;43095;53.302;5.786;2023-04-24T15:58:07;8.60;99.90
57242;DHT22;43095;53.302;5.786;2023-04-24T16:00:34;8.50;99.90
57242;DHT22;43095;53.302;5.786;2023-04-24T16:03:03;8.60;99.90
57242;DHT22;43095;53.302;5.786;2023-04-24T16:05:34;8.60;99.90
57242;DHT22;43095;53.302;5.786;2023-04-24T16:08:01;8.60;99.90
57242;DHT22;43095;53.302;5.786;2023-04-24T16:10:28;8.60;99.90
57242;DHT22;43095;53.302;5.786;2023-04-24T16:12:56;8.60;99.90
57242;DHT22;43095;53.302;5.786;2023-04-24T16:15:25;8.60;99.90
57242;DHT22;43095;53.302;5.786;2023-04-24T16:17:52;8.60;99.90
57242;DHT22;43095;53.302;5.786;2023-04-24T16:20:20;8.50;99.90
57242;DHT22;43095;53.302;5.786;2023-04-24T16:22:47;8.60;99.90
57242;DHT22;43095;53.302;5.786;2023-04-24T16:25:14;8.70;99.90
57242;DHT22;43095;53.302;5.786;2023-04-24T16:27:41;8.60;99.90
57242;DHT22;43095;53.302;5.786;2023-04-24T16:30:09;8.60;99.90
57242;DHT22;43095;53.302;5.786;2023-04-24T16:32:37;8.50;99.90
57242;DHT22;43095;53.302;5.786;2023-04-24T16:35:04;8.50;99.90
57242;DHT22;43095;53.302;5.786;2023-04-24T16:37:31;8.40;99.90
57242;DHT22;43095;53.302;5.786;2023-04-24T16:39:58;8.40;99.90
57242;DHT22;43095;53.302;5.786;2023-04-24T16:42:26;8.30;99.90
57242;DHT22;43095;53.302;5.786;2023-04-24T16:44:53;8.30;99.90